sensor_id;sensor_type;location;lat;lon;timestamp;pressure;altitude;pressure_sealevel;temperature;humidity
76762;BME280;65705;51.032;13.790;2023-07-31T00:01:56;100090.56;;;17.54;68.08
76762;BME280;65705;51.032;13.790;2023-07-31T00:04:21;100089.53;;;17.55;67.76
76762;BME280;65705;51.032;13.790;2023-07-31T00:06:47;100096.22;;;17.38;67.85
76762;BME280;65705;51.032;13.790;2023-07-31T00:09:13;100096.22;;;17.38;68.67
76762;BME280;65705;51.032;13.790;2023-07-31T00:11:38;100101.31;;;17.40;68.65
76762;BME280;65705;51.032;13.790;2023-07-31T00:14:04;100093.56;;;17.45;68.49
76762;BME280;65705;51.032;13.790;2023-07-31T00:16:30;100098.66;;;17.46;68.57
76762;BME280;65705;51.032;13.790;2023-07-31T00:18:56;100099.09;;;17.43;68.74
76762;BME280;65705;51.032;13.790;2023-07-31T00:21:21;100093.19;;;17.48;68.64
76762;BME280;65705;51.032;13.790;2023-07-31T00:23:47;100093.78;;;17.37;67.76
76762;BME280;65705;51.032;13.790;2023-07-31T00:26:13;100090.09;;;17.31;67.95
76762;BME280;65705;51.032;13.790;2023-07-31T00:28:38;100089.88;;;17.26;67.73
76762;BME280;65705;51.032;13.790;2023-07-31T00:31:04;100080.69;;;17.22;67.99
76762;BME280;65705;51.032;13.790;2023-07-31T00:33:31;100089.06;;;17.32;67.88
76762;BME280;65705;51.032;13.790;2023-07-31T00:35:57;100077.00;;;17.23;67.57
76762;BME280;65705;51.032;13.790;2023-07-31T00:38:25;100080.09;;;17.20;67.80
76762;BME280;65705;51.032;13.790;2023-07-31T00:40:50;100073.53;;;17.23;67.25
76762;BME280;65705;51.032;13.790;2023-07-31T00:43:16;100080.06;;;17.27;67.13
76762;BME280;65705;51.032;13.790;2023-07-31T00:45:42;100078.88;;;17.36;67.36
76762;BME280;65705;51.032;13.790;2023-07-31T00:48:08;100079.28;;;17.39;66.76
76762;BME280;65705;51.032;13.790;2023-07-31T00:50:34;100088.25;;;17.32;66.37
76762;BME280;65705;51.032;13.790;2023-07-31T00:53:00;100074.56;;;17.28;66.34
76762;BME280;65705;51.032;13.790;2023-07-31T00:55:26;100065.81;;;17.28;66.31
76762;BME280;65705;51.032;13.790;2023-07-31T00:57:52;100073.16;;;17.26;65.64
76762;BME280;65705;51.032;13.790;2023-07-31T01:00:18;100066.19;;;17.18;65.75
76762;BME280;65705;51.032;13.790;2023-07-31T01:02:44;100061.31;;;17.15;65.95
76762;BME280;65705;51.032;13.790;2023-07-31T01:05:10;100068.22;;;17.16;65.88
76762;BME280;65705;51.032;13.790;2023-07-31T01:08:06;100064.38;;;17.19;65.61
76762;BME280;65705;51.032;13.790;2023-07-31T01:10:43;100067.03;;;17.25;65.07
76762;BME280;65705;51.032;13.790;2023-07-31T01:13:11;100058.66;;;17.28;64.68
76762;BME280;65705;51.032;13.790;2023-07-31T01:15:37;100059.69;;;17.27;64.50
76762;BME280;65705;51.032;13.790;2023-07-31T01:18:04;100054.16;;;17.29;64.20
76762;BME280;65705;51.032;13.790;2023-07-31T01:20:30;100059.28;;;17.37;64.39
76762;BME280;65705;51.032;13.790;2023-07-31T01:28:07;100055.41;;;17.46;64.17
76762;BME280;65705;51.032;13.790;2023-07-31T01:30:41;100047.88;;;17.49;63.27
76762;BME280;65705;51.032;13.790;2023-07-31T01:33:09;100050.94;;;17.53;63.59
76762;BME280;65705;51.032;13.790;2023-07-31T01:35:36;100054.41;;;17.53;63.56
76762;BME280;65705;51.032;13.790;2023-07-31T01:38:02;100048.50;;;17.58;63.04
76762;BME280;65705;51.032;13.790;2023-07-31T01:40:28;100054.00;;;17.56;62.73
76762;BME280;65705;51.032;13.790;2023-07-31T01:42:53;100042.16;;;17.59;62.16
76762;BME280;65705;51.032;13.790;2023-07-31T01:45:19;100046.66;;;17.58;62.96
76762;BME280;65705;51.032;13.790;2023-07-31T01:47:45;100039.91;;;17.56;63.04
76762;BME280;65705;51.032;13.790;2023-07-31T01:50:11;100040.94;;;17.61;62.20
76762;BME280;65705;51.032;13.790;2023-07-31T01:52:37;100044.22;;;17.63;63.23
76762;BME280;65705;51.032;13.790;2023-07-31T01:55:03;100034.38;;;17.64;63.00
76762;BME280;65705;51.032;13.790;2023-07-31T01:57:29;100029.91;;;17.64;62.73
76762;BME280;65705;51.032;13.790;2023-07-31T01:59:54;100035.22;;;17.71;62.95
76762;BME280;65705;51.032;13.790;2023-07-31T02:02:20;100030.09;;;17.69;62.99
76762;BME280;65705;51.032;13.790;2023-07-31T02:04:46;100028.66;;;17.73;61.82
76762;BME280;65705;51.032;13.790;2023-07-31T02:07:12;100029.47;;;17.80;61.79
76762;BME280;65705;51.032;13.790;2023-07-31T02:09:38;100030.28;;;17.81;61.14
76762;BME280;65705;51.032;13.790;2023-07-31T02:12:04;100026.19;;;17.78;61.66
76762;BME280;65705;51.032;13.790;2023-07-31T02:14:30;100033.78;;;17.81;61.52
76762;BME280;65705;51.032;13.790;2023-07-31T02:16:55;100033.34;;;17.84;61.77
76762;BME280;65705;51.032;13.790;2023-07-31T02:19:21;100028.84;;;17.85;61.67
76762;BME280;65705;51.032;13.790;2023-07-31T02:21:47;100021.69;;;17.85;62.16
76762;BME280;65705;51.032;13.790;2023-07-31T02:24:13;100031.72;;;17.83;62.24
76762;BME280;65705;51.032;13.790;2023-07-31T02:26:38;100023.34;;;17.86;62.00
76762;BME280;65705;51.032;13.790;2023-07-31T02:29:04;100030.06;;;17.89;60.82
76762;BME280;65705;51.032;13.790;2023-07-31T02:31:30;100024.56;;;17.91;61.13
76762;BME280;65705;51.032;13.790;2023-07-31T02:33:55;100032.72;;;17.96;61.12
76762;BME280;65705;51.032;13.790;2023-07-31T02:36:21;100025.13;;;17.99;61.12
76762;BME280;65705;51.032;13.790;2023-07-31T02:38:47;100024.09;;;18.00;61.02
76762;BME280;65705;51.032;13.790;2023-07-31T02:41:13;100037.00;;;18.03;61.08
76762;BME280;65705;51.032;13.790;2023-07-31T02:43:38;100029.03;;;17.97;61.46
76762;BME280;65705;51.032;13.790;2023-07-31T02:46:04;100025.75;;;18.01;62.35
76762;BME280;65705;51.032;13.790;2023-07-31T02:48:30;100021.66;;;17.99;61.85
76762;BME280;65705;51.032;13.790;2023-07-31T02:50:56;100028.00;;;17.98;61.69
76762;BME280;65705;51.032;13.790;2023-07-31T02:53:21;100021.66;;;17.99;61.45
76762;BME280;65705;51.032;13.790;2023-07-31T02:55:48;100019.84;;;17.99;61.51
76762;BME280;65705;51.032;13.790;2023-07-31T02:58:14;100020.84;;;17.98;61.66
76762;BME280;65705;51.032;13.790;2023-07-31T03:00:42;100014.09;;;18.02;61.81
76762;BME280;65705;51.032;13.790;2023-07-31T03:03:08;100017.34;;;18.04;60.53
76762;BME280;65705;51.032;13.790;2023-07-31T03:05:34;100015.53;;;18.05;61.16
76762;BME280;65705;51.032;13.790;2023-07-31T03:07:59;100023.88;;;18.02;61.87
76762;BME280;65705;51.032;13.790;2023-07-31T03:10:25;100020.63;;;18.06;61.10
76762;BME280;65705;51.032;13.790;2023-07-31T03:12:51;100017.75;;;18.08;60.63
76762;BME280;65705;51.032;13.790;2023-07-31T03:15:16;100024.06;;;18.13;60.21
76762;BME280;65705;51.032;13.790;2023-07-31T03:17:42;100015.69;;;18.16;59.40
76762;BME280;65705;51.032;13.790;2023-07-31T03:20:08;100019.75;;;18.19;59.01
76762;BME280;65705;51.032;13.790;2023-07-31T03:22:34;100022.00;;;18.22;58.47
76762;BME280;65705;51.032;13.790;2023-07-31T03:25:01;100021.16;;;18.28;57.06
76762;BME280;65705;51.032;13.790;2023-07-31T03:27:27;100030.75;;;18.29;57.14
76762;BME280;65705;51.032;13.790;2023-07-31T03:29:53;100033.41;;;18.29;56.98
76762;BME280;65705;51.032;13.790;2023-07-31T03:32:19;100027.66;;;18.38;55.99
76762;BME280;65705;51.032;13.790;2023-07-31T03:34:44;100028.09;;;18.42;56.17
76762;BME280;65705;51.032;13.790;2023-07-31T03:37:10;100038.88;;;18.47;56.05
76762;BME280;65705;51.032;13.790;2023-07-31T03:39:36;100037.50;;;18.44;56.40
76762;BME280;65705;51.032;13.790;2023-07-31T03:42:01;100041.94;;;18.50;56.38
76762;BME280;65705;51.032;13.790;2023-07-31T03:44:28;100041.94;;;18.50;56.97
76762;BME280;65705;51.032;13.790;2023-07-31T03:46:54;100041.94;;;18.57;57.57
76762;BME280;65705;51.032;13.790;2023-07-31T03:49:20;100042.34;;;18.54;58.75
76762;BME280;65705;51.032;13.790;2023-07-31T03:51:46;100039.09;;;18.45;60.21
76762;BME280;65705;51.032;13.790;2023-07-31T03:54:11;100035.00;;;18.43;60.66
76762;BME280;65705;51.032;13.790;2023-07-31T03:56:38;100030.75;;;18.42;61.47
76762;BME280;65705;51.032;13.790;2023-07-31T03:59:04;100029.72;;;18.36;62.63
76762;BME280;65705;51.032;13.790;2023-07-31T04:01:30;100035.03;;;18.36;63.12
76762;BME280;65705;51.032;13.790;2023-07-31T04:03:55;100030.09;;;18.40;63.31
76762;BME280;65705;51.032;13.790;2023-07-31T04:06:21;100025.59;;;18.40;63.58
76762;BME280;65705;51.032;13.790;2023-07-31T04:08:47;100015.84;;;18.41;64.02
76762;BME280;65705;51.032;13.790;2023-07-31T04:11:13;100026.47;;;18.41;64.05
76762;BME280;65705;51.032;13.790;2023-07-31T04:13:38;100012.53;;;18.39;64.37
76762;BME280;65705;51.032;13.790;2023-07-31T04:16:04;100017.25;;;18.37;64.71
76762;BME280;65705;51.032;13.790;2023-07-31T04:18:30;100012.31;;;18.40;64.87
76762;BME280;65705;51.032;13.790;2023-07-31T04:20:57;100012.94;;;18.36;65.84
76762;BME280;65705;51.032;13.790;2023-07-31T04:23:26;100010.50;;;18.34;66.38
76762;BME280;65705;51.032;13.790;2023-07-31T04:25:52;100011.94;;;18.37;66.52
76762;BME280;65705;51.032;13.790;2023-07-31T04:28:18;100006.22;;;18.33;66.97
76762;BME280;65705;51.032;13.790;2023-07-31T04:30:44;100004.56;;;18.32;68.02
76762;BME280;65705;51.032;13.790;2023-07-31T04:33:09;100006.44;;;18.32;68.31
76762;BME280;65705;51.032;13.790;2023-07-31T04:35:35;99998.25;;;18.33;68.06
76762;BME280;65705;51.032;13.790;2023-07-31T04:38:01;100003.78;;;18.32;69.02
76762;BME280;65705;51.032;13.790;2023-07-31T04:40:26;99995.81;;;18.32;69.01
76762;BME280;65705;51.032;13.790;2023-07-31T04:42:52;99993.94;;;18.32;69.43
76762;BME280;65705;51.032;13.790;2023-07-31T04:45:18;99994.16;;;18.31;69.39
76762;BME280;65705;51.032;13.790;2023-07-31T04:47:43;99989.66;;;18.31;69.78
76762;BME280;65705;51.032;13.790;2023-07-31T04:50:09;99984.97;;;18.27;69.86
76762;BME280;65705;51.032;13.790;2023-07-31T04:52:35;99986.78;;;18.33;70.10
76762;BME280;65705;51.032;13.790;2023-07-31T04:55:01;99991.28;;;18.32;70.18
76762;BME280;65705;51.032;13.790;2023-07-31T04:57:27;99988.44;;;18.34;69.91
76762;BME280;65705;51.032;13.790;2023-07-31T04:59:52;99986.78;;;18.33;69.92
76762;BME280;65705;51.032;13.790;2023-07-31T05:02:18;99981.91;;;18.30;70.54
76762;BME280;65705;51.032;13.790;2023-07-31T05:04:44;99979.03;;;18.31;70.83
76762;BME280;65705;51.032;13.790;2023-07-31T05:07:09;99976.59;;;18.30;70.67
76762;BME280;65705;51.032;13.790;2023-07-31T05:09:35;99980.88;;;18.31;70.75
76762;BME280;65705;51.032;13.790;2023-07-31T05:12:01;99982.09;;;18.35;70.06
76762;BME280;65705;51.032;13.790;2023-07-31T05:14:26;99974.28;;;18.40;70.00
76762;BME280;65705;51.032;13.790;2023-07-31T05:16:52;99970.66;;;18.41;69.89
76762;BME280;65705;51.032;13.790;2023-07-31T05:19:18;99974.50;;;18.45;69.33
76762;BME280;65705;51.032;13.790;2023-07-31T05:21:43;99968.16;;;18.46;69.32
76762;BME280;65705;51.032;13.790;2023-07-31T05:24:10;99974.88;;;18.48;69.47
76762;BME280;65705;51.032;13.790;2023-07-31T05:26:36;99965.47;;;18.52;68.34
76762;BME280;65705;51.032;13.790;2023-07-31T05:29:03;99973.22;;;18.54;68.22
76762;BME280;65705;51.032;13.790;2023-07-31T05:31:29;99968.50;;;18.56;67.86
76762;BME280;65705;51.032;13.790;2023-07-31T05:33:54;99964.00;;;18.56;67.76
76762;BME280;65705;51.032;13.790;2023-07-31T05:36:20;99964.84;;;18.57;67.61
76762;BME280;65705;51.032;13.790;2023-07-31T05:38:46;99968.88;;;18.59;67.40
76762;BME280;65705;51.032;13.790;2023-07-31T05:41:12;99954.75;;;18.65;67.19
76762;BME280;65705;51.032;13.790;2023-07-31T05:43:38;99958.81;;;18.68;67.17
76762;BME280;65705;51.032;13.790;2023-07-31T05:46:03;99961.09;;;18.64;67.60
76762;BME280;65705;51.032;13.790;2023-07-31T05:48:29;99963.34;;;18.67;67.03
76762;BME280;65705;51.032;13.790;2023-07-31T05:50:55;99961.47;;;18.68;67.34
76762;BME280;65705;51.032;13.790;2023-07-31T05:53:21;99960.63;;;18.74;67.18
76762;BME280;65705;51.032;13.790;2023-07-31T05:55:46;99955.25;;;18.80;66.34
76762;BME280;65705;51.032;13.790;2023-07-31T05:58:12;99953.84;;;18.78;66.91
76762;BME280;65705;51.032;13.790;2023-07-31T06:00:38;99961.00;;;18.77;67.17
76762;BME280;65705;51.032;13.790;2023-07-31T06:03:04;99957.91;;;18.80;66.43
76762;BME280;65705;51.032;13.790;2023-07-31T06:05:29;99957.72;;;18.82;66.74
76762;BME280;65705;51.032;13.790;2023-07-31T06:07:56;99952.97;;;18.84;66.93
76762;BME280;65705;51.032;13.790;2023-07-31T06:10:22;99945.78;;;18.91;66.79
76762;BME280;65705;51.032;13.790;2023-07-31T06:12:47;99951.03;;;18.98;65.78
76762;BME280;65705;51.032;13.790;2023-07-31T06:15:13;99947.56;;;18.97;65.59
76762;BME280;65705;51.032;13.790;2023-07-31T06:17:39;99945.13;;;18.96;65.42
76762;BME280;65705;51.032;13.790;2023-07-31T06:20:06;99952.06;;;18.97;65.47
76762;BME280;65705;51.032;13.790;2023-07-31T06:22:32;99951.03;;;18.98;65.15
76762;BME280;65705;51.032;13.790;2023-07-31T06:24:58;99956.28;;;19.04;65.10
76762;BME280;65705;51.032;13.790;2023-07-31T06:27:24;99956.69;;;19.08;64.91
76762;BME280;65705;51.032;13.790;2023-07-31T06:29:49;99957.06;;;19.11;64.66
76762;BME280;65705;51.032;13.790;2023-07-31T06:32:15;99942.88;;;19.17;64.72
76762;BME280;65705;51.032;13.790;2023-07-31T06:34:41;99947.63;;;19.15;64.54
76762;BME280;65705;51.032;13.790;2023-07-31T06:37:06;99955.00;;;19.13;64.63
76762;BME280;65705;51.032;13.790;2023-07-31T06:39:32;99950.28;;;19.15;64.47
76762;BME280;65705;51.032;13.790;2023-07-31T06:41:58;99947.63;;;19.15;64.49
76762;BME280;65705;51.032;13.790;2023-07-31T06:44:24;99948.59;;;19.21;64.27
76762;BME280;65705;51.032;13.790;2023-07-31T06:46:50;99951.84;;;19.23;64.25
76762;BME280;65705;51.032;13.790;2023-07-31T06:49:16;99944.25;;;19.26;64.46
76762;BME280;65705;51.032;13.790;2023-07-31T06:51:42;99942.78;;;19.30;64.25
76762;BME280;65705;51.032;13.790;2023-07-31T06:54:08;99950.13;;;19.35;63.32
76762;BME280;65705;51.032;13.790;2023-07-31T06:56:34;99947.25;;;19.36;63.48
76762;BME280;65705;51.032;13.790;2023-07-31T06:59:00;99949.25;;;19.41;63.04
76762;BME280;65705;51.032;13.790;2023-07-31T07:01:26;99951.69;;;19.42;62.79
76762;BME280;65705;51.032;13.790;2023-07-31T07:03:53;99951.84;;;19.47;62.64
76762;BME280;65705;51.032;13.790;2023-07-31T07:06:18;99951.22;;;19.52;62.12
76762;BME280;65705;51.032;13.790;2023-07-31T07:08:44;99950.75;;;19.55;62.09
76762;BME280;65705;51.032;13.790;2023-07-31T07:11:10;99954.63;;;19.59;62.49
76762;BME280;65705;51.032;13.790;2023-07-31T07:13:36;99952.91;;;19.64;62.07
76762;BME280;65705;51.032;13.790;2023-07-31T07:16:01;99956.97;;;19.67;62.35
76762;BME280;65705;51.032;13.790;2023-07-31T07:18:27;99940.94;;;19.73;61.38
76762;BME280;65705;51.032;13.790;2023-07-31T07:20:53;99958.31;;;19.76;61.40
76762;BME280;65705;51.032;13.790;2023-07-31T07:23:20;99948.25;;;19.78;61.14
76762;BME280;65705;51.032;13.790;2023-07-31T07:25:46;99950.03;;;19.84;60.88
76762;BME280;65705;51.032;13.790;2023-07-31T07:28:13;99954.03;;;19.93;60.52
76762;BME280;65705;51.032;13.790;2023-07-31T07:30:39;99948.63;;;20.00;60.29
76762;BME280;65705;51.032;13.790;2023-07-31T07:33:05;99952.25;;;20.05;60.25
76762;BME280;65705;51.032;13.790;2023-07-31T07:35:33;99954.66;;;20.07;59.84
76762;BME280;65705;51.032;13.790;2023-07-31T07:38:01;99948.00;;;20.16;59.56
76762;BME280;65705;51.032;13.790;2023-07-31T07:40:26;99945.50;;;20.21;59.55
76762;BME280;65705;51.032;13.790;2023-07-31T07:42:52;99942.97;;;20.26;59.27
76762;BME280;65705;51.032;13.790;2023-07-31T07:45:18;99935.56;;;20.28;59.11
76762;BME280;65705;51.032;13.790;2023-07-31T07:47:43;99942.97;;;20.26;59.26
76762;BME280;65705;51.032;13.790;2023-07-31T07:50:10;99943.13;;;20.13;59.20
76762;BME280;65705;51.032;13.790;2023-07-31T07:52:35;99954.53;;;20.20;59.12
76762;BME280;65705;51.032;13.790;2023-07-31T07:55:01;99949.06;;;20.15;59.36
76762;BME280;65705;51.032;13.790;2023-07-31T07:57:27;99949.81;;;20.22;58.91
76762;BME280;65705;51.032;13.790;2023-07-31T07:59:53;99950.75;;;20.27;58.45
76762;BME280;65705;51.032;13.790;2023-07-31T08:02:18;99944.50;;;20.33;58.74
76762;BME280;65705;51.032;13.790;2023-07-31T08:04:44;99945.69;;;20.37;58.36
76762;BME280;65705;51.032;13.790;2023-07-31T08:07:13;99959.25;;;20.36;58.23
76762;BME280;65705;51.032;13.790;2023-07-31T08:09:39;99950.13;;;20.43;58.00
76762;BME280;65705;51.032;13.790;2023-07-31T08:12:05;99950.84;;;20.50;57.70
76762;BME280;65705;51.032;13.790;2023-07-31T08:14:31;99956.78;;;20.52;57.54
76762;BME280;65705;51.032;13.790;2023-07-31T08:16:57;99959.22;;;20.65;57.81
76762;BME280;65705;51.032;13.790;2023-07-31T08:19:23;99965.97;;;20.68;57.76
76762;BME280;65705;51.032;13.790;2023-07-31T08:21:49;99956.50;;;20.83;57.35
76762;BME280;65705;51.032;13.790;2023-07-31T08:24:14;99963.59;;;20.89;56.65
76762;BME280;65705;51.032;13.790;2023-07-31T08:26:40;99960.00;;;20.95;56.08
76762;BME280;65705;51.032;13.790;2023-07-31T08:29:06;99966.63;;;20.93;56.24
76762;BME280;65705;51.032;13.790;2023-07-31T08:31:32;99955.06;;;20.99;56.03
76762;BME280;65705;51.032;13.790;2023-07-31T08:33:57;99956.53;;;20.95;56.20
76762;BME280;65705;51.032;13.790;2023-07-31T08:36:23;99964.97;;;20.92;56.66
76762;BME280;65705;51.032;13.790;2023-07-31T08:38:49;99960.09;;;20.89;56.84
76762;BME280;65705;51.032;13.790;2023-07-31T08:41:16;99957.88;;;20.74;56.96
76762;BME280;65705;51.032;13.790;2023-07-31T08:43:46;99951.50;;;20.75;57.00
76762;BME280;65705;51.032;13.790;2023-07-31T08:46:12;99945.72;;;20.78;56.83
76762;BME280;65705;51.032;13.790;2023-07-31T08:48:42;99946.75;;;20.77;56.62
76762;BME280;65705;51.032;13.790;2023-07-31T08:51:08;99944.88;;;20.78;56.61
76762;BME280;65705;51.032;13.790;2023-07-31T08:53:34;99947.19;;;20.74;57.07
76762;BME280;65705;51.032;13.790;2023-07-31T08:56:00;99942.91;;;20.73;57.24
76762;BME280;65705;51.032;13.790;2023-07-31T08:58:31;99946.84;;;20.71;57.02
76762;BME280;65705;51.032;13.790;2023-07-31T09:00:59;99952.66;;;20.68;56.71
76762;BME280;65705;51.032;13.790;2023-07-31T09:03:26;99954.19;;;20.75;56.62
76762;BME280;65705;51.032;13.790;2023-07-31T09:05:53;99942.56;;;20.81;56.87
76762;BME280;65705;51.032;13.790;2023-07-31T09:08:21;99958.22;;;20.78;56.74
76762;BME280;65705;51.032;13.790;2023-07-31T09:10:47;99959.75;;;20.74;56.36
76762;BME280;65705;51.032;13.790;2023-07-31T09:13:14;99960.53;;;20.74;56.37
76762;BME280;65705;51.032;13.790;2023-07-31T09:15:40;99950.22;;;20.78;56.39
76762;BME280;65705;51.032;13.790;2023-07-31T09:18:08;99959.03;;;20.78;56.43
76762;BME280;65705;51.032;13.790;2023-07-31T09:20:34;99958.16;;;20.84;56.32
76762;BME280;65705;51.032;13.790;2023-07-31T09:23:10;99948.63;;;20.88;55.81
76762;BME280;65705;51.032;13.790;2023-07-31T09:25:37;99946.41;;;20.85;56.19
76762;BME280;65705;51.032;13.790;2023-07-31T09:28:06;99941.66;;;20.87;56.41
76762;BME280;65705;51.032;13.790;2023-07-31T09:30:52;99943.28;;;20.88;56.12
76762;BME280;65705;51.032;13.790;2023-07-31T09:33:19;99935.63;;;20.92;56.30
76762;BME280;65705;51.032;13.790;2023-07-31T09:35:45;99937.03;;;20.94;55.70
76762;BME280;65705;51.032;13.790;2023-07-31T09:38:14;99927.63;;;20.92;55.82
76762;BME280;65705;51.032;13.790;2023-07-31T09:40:42;99932.97;;;20.92;55.79
76762;BME280;65705;51.032;13.790;2023-07-31T09:43:19;99930.09;;;20.93;55.66
76762;BME280;65705;51.032;13.790;2023-07-31T09:45:46;99929.03;;;20.94;55.53
76762;BME280;65705;51.032;13.790;2023-07-31T09:48:16;99921.63;;;20.96;55.28
76762;BME280;65705;51.032;13.790;2023-07-31T09:50:45;99926.72;;;20.98;54.83
76762;BME280;65705;51.032;13.790;2023-07-31T09:53:11;99929.84;;;20.95;55.15
76762;BME280;65705;51.032;13.790;2023-07-31T09:55:38;99923.09;;;20.92;55.26
76762;BME280;65705;51.032;13.790;2023-07-31T09:58:05;99924.66;;;21.00;54.87
76762;BME280;65705;51.032;13.790;2023-07-31T10:00:32;99930.44;;;20.97;55.15
76762;BME280;65705;51.032;13.790;2023-07-31T10:02:59;99920.94;;;21.01;55.08
76762;BME280;65705;51.032;13.790;2023-07-31T10:05:34;99916.19;;;21.03;54.75
76762;BME280;65705;51.032;13.790;2023-07-31T10:08:00;99915.75;;;21.06;54.58
76762;BME280;65705;51.032;13.790;2023-07-31T10:10:27;99920.97;;;21.13;54.57
76762;BME280;65705;51.032;13.790;2023-07-31T10:12:54;99915.97;;;21.16;54.52
76762;BME280;65705;51.032;13.790;2023-07-31T10:15:21;99915.25;;;21.21;54.48
76762;BME280;65705;51.032;13.790;2023-07-31T10:17:48;99914.34;;;21.15;54.26
76762;BME280;65705;51.032;13.790;2023-07-31T10:20:15;99907.13;;;21.16;54.22
76762;BME280;65705;51.032;13.790;2023-07-31T10:22:44;99913.66;;;21.20;54.28
76762;BME280;65705;51.032;13.790;2023-07-31T10:25:15;99906.09;;;21.28;54.13
76762;BME280;65705;51.032;13.790;2023-07-31T10:27:41;99902.41;;;21.29;54.03
76762;BME280;65705;51.032;13.790;2023-07-31T10:30:13;99897.97;;;21.35;54.25
76762;BME280;65705;51.032;13.790;2023-07-31T10:32:41;99897.25;;;21.39;54.30
76762;BME280;65705;51.032;13.790;2023-07-31T10:35:08;99896.94;;;21.47;54.06
76762;BME280;65705;51.032;13.790;2023-07-31T10:37:40;99891.94;;;21.51;53.77
76762;BME280;65705;51.032;13.790;2023-07-31T10:40:11;99887.59;;;21.61;53.35
76762;BME280;65705;51.032;13.790;2023-07-31T10:42:55;99885.50;;;21.63;53.36
76762;BME280;65705;51.032;13.790;2023-07-31T10:45:41;99889.44;;;21.72;52.87
76762;BME280;65705;51.032;13.790;2023-07-31T10:48:15;99877.22;;;21.76;52.70
76762;BME280;65705;51.032;13.790;2023-07-31T10:53:32;99876.28;;;21.94;52.24
76762;BME280;65705;51.032;13.790;2023-07-31T10:55:59;99877.56;;;21.91;52.36
76762;BME280;65705;51.032;13.790;2023-07-31T10:58:25;99864.28;;;21.96;51.95
76762;BME280;65705;51.032;13.790;2023-07-31T11:00:57;99865.09;;;21.97;52.29
76762;BME280;65705;51.032;13.790;2023-07-31T11:03:43;99861.38;;;21.98;52.36
76762;BME280;65705;51.032;13.790;2023-07-31T11:06:09;99866.47;;;21.99;52.47
76762;BME280;65705;51.032;13.790;2023-07-31T11:08:41;99867.06;;;22.02;52.77
76762;BME280;65705;51.032;13.790;2023-07-31T11:11:09;99865.88;;;22.09;52.39
76762;BME280;65705;51.032;13.790;2023-07-31T11:13:49;99867.16;;;22.07;52.26
76762;BME280;65705;51.032;13.790;2023-07-31T11:16:16;99864.50;;;22.07;52.35
76762;BME280;65705;51.032;13.790;2023-07-31T11:18:44;99864.81;;;22.10;52.26
76762;BME280;65705;51.032;13.790;2023-07-31T11:21:28;99866.53;;;22.16;52.24
76762;BME280;65705;51.032;13.790;2023-07-31T11:23:57;99857.69;;;22.16;52.89
76762;BME280;65705;51.032;13.790;2023-07-31T11:26:24;99856.16;;;22.20;52.93
76762;BME280;65705;51.032;13.790;2023-07-31T11:28:50;99856.16;;;22.20;53.61
76762;BME280;65705;51.032;13.790;2023-07-31T11:31:17;99857.81;;;22.21;54.20
76762;BME280;65705;51.032;13.790;2023-07-31T11:33:44;99858.03;;;22.19;53.52
76762;BME280;65705;51.032;13.790;2023-07-31T11:36:17;99861.06;;;22.23;53.72
76762;BME280;65705;51.032;13.790;2023-07-31T11:38:43;99855.13;;;22.21;54.09
76762;BME280;65705;51.032;13.790;2023-07-31T11:41:09;99854.25;;;22.32;53.28
76762;BME280;65705;51.032;13.790;2023-07-31T11:43:34;99865.19;;;22.47;53.35
76762;BME280;65705;51.032;13.790;2023-07-31T11:46:02;99851.63;;;22.65;53.38
76762;BME280;65705;51.032;13.790;2023-07-31T11:48:30;99852.41;;;22.82;52.99
76762;BME280;65705;51.032;13.790;2023-07-31T11:51:00;99849.91;;;22.92;52.63
76762;BME280;65705;51.032;13.790;2023-07-31T11:53:31;99843.09;;;23.01;52.32
76762;BME280;65705;51.032;13.790;2023-07-31T11:55:59;99834.16;;;23.12;52.01
76762;BME280;65705;51.032;13.790;2023-07-31T11:58:27;99840.63;;;23.16;51.92
76762;BME280;65705;51.032;13.790;2023-07-31T12:00:54;99831.59;;;23.22;51.58
76762;BME280;65705;51.032;13.790;2023-07-31T12:03:21;99819.28;;;23.21;51.60
76762;BME280;65705;51.032;13.790;2023-07-31T12:05:48;99826.09;;;23.29;51.65
76762;BME280;65705;51.032;13.790;2023-07-31T12:08:14;99812.53;;;23.35;51.10
76762;BME280;65705;51.032;13.790;2023-07-31T12:10:39;99816.13;;;23.46;51.37
76762;BME280;65705;51.032;13.790;2023-07-31T12:13:26;99808.22;;;23.56;50.98
76762;BME280;65705;51.032;13.790;2023-07-31T12:15:56;99793.88;;;23.67;49.95
76762;BME280;65705;51.032;13.790;2023-07-31T12:18:24;99802.28;;;23.75;49.06
76762;BME280;65705;51.032;13.790;2023-07-31T12:20:56;99804.72;;;23.77;49.31
76762;BME280;65705;51.032;13.790;2023-07-31T12:23:24;99804.22;;;23.80;49.26
76762;BME280;65705;51.032;13.790;2023-07-31T12:26:16;99796.69;;;23.77;49.14
76762;BME280;65705;51.032;13.790;2023-07-31T12:28:43;99790.81;;;23.80;49.19
76762;BME280;65705;51.032;13.790;2023-07-31T12:31:10;99789.56;;;23.87;49.65
76762;BME280;65705;51.032;13.790;2023-07-31T12:33:38;99784.78;;;23.94;49.09
76762;BME280;65705;51.032;13.790;2023-07-31T12:36:09;99773.19;;;24.11;49.07
76762;BME280;65705;51.032;13.790;2023-07-31T12:38:35;99775.47;;;24.29;48.35
76762;BME280;65705;51.032;13.790;2023-07-31T12:41:01;99778.22;;;24.39;47.10
76762;BME280;65705;51.032;13.790;2023-07-31T12:43:26;99774.47;;;24.40;46.74
76762;BME280;65705;51.032;13.790;2023-07-31T12:45:54;99765.41;;;24.46;46.41
76762;BME280;65705;51.032;13.790;2023-07-31T12:48:20;99767.34;;;24.50;46.52
76762;BME280;65705;51.032;13.790;2023-07-31T12:50:46;99761.97;;;24.50;46.66
76762;BME280;65705;51.032;13.790;2023-07-31T12:53:11;99746.38;;;24.52;45.35